Time;durP1;ratioP1;P1;durP2;ratioP2;P2;SDS_P1;SDS_P2;PMS_P1;PMS_P2;Temp;Humidity;BMP_temperature;BMP_pressure;BME280_temperature;BME280_humidity;BME280_pressure;Samples;Min_cycle;Max_cycle;Signal;HPM_P1;HPM_P2
2022/08/24 00:02:24;;;;;;;44.33;40.13;;;19.50;99.90;;;;;;5059791;28;20185;-31
2022/08/24 00:04:51;;;;;;;48.22;43.53;;;19.40;99.90;;;;;;5066668;28;20505;-31
2022/08/24 00:07:18;;;;;;;49.17;44.25;;;19.40;99.90;;;;;;5068627;28;20037;-29
2022/08/24 00:09:45;;;;;;;43.90;39.67;;;19.30;99.90;;;;;;5071410;28;20115;-31
2022/08/24 00:12:12;;;;;;;39.40;35.72;;;19.30;99.90;;;;;;5053540;28;20033;-29
2022/08/24 00:14:39;;;;;;;46.20;41.42;;;19.30;99.90;;;;;;5053642;28;20039;-31
2022/08/24 00:17:05;;;;;;;44.67;40.35;;;19.20;99.90;;;;;;5053571;28;20399;-29
2022/08/24 00:19:31;;;;;;;41.95;37.85;;;19.20;99.90;;;;;;5051922;28;20116;-31
2022/08/24 00:21:56;;;;;;;46.50;42.03;;;19.20;99.90;;;;;;5055096;28;20159;-33
2022/08/24 00:24:23;;;;;;;46.15;41.78;;;19.20;99.90;;;;;;5051471;28;20058;-33
2022/08/24 00:26:49;;;;;;;42.28;38.30;;;19.10;99.90;;;;;;5058559;28;20041;-30
2022/08/24 00:29:16;;;;;;;43.10;39.03;;;19.10;99.90;;;;;;5068072;28;20042;-31
2022/08/24 00:31:42;;;;;;;43.67;39.42;;;19.10;99.90;;;;;;5060974;28;20131;-33
2022/08/24 00:34:08;;;;;;;46.85;42.50;;;19.00;99.90;;;;;;5071669;28;20111;-30
2022/08/24 00:36:34;;;;;;;42.28;38.17;;;19.00;99.90;;;;;;5071429;28;20126;-31
2022/08/24 00:39:00;;;;;;;43.85;39.75;;;19.00;99.90;;;;;;5070340;28;20039;-30
2022/08/24 00:41:27;;;;;;;43.15;38.85;;;18.90;99.90;;;;;;5070882;28;20047;-30
2022/08/24 00:44:00;;;;;;;44.53;39.95;;;18.90;99.90;;;;;;5067701;28;20037;-28
2022/08/24 00:46:29;;;;;;;44.83;40.58;;;18.90;99.90;;;;;;5069087;28;20049;-29
2022/08/24 00:49:10;;;;;;;47.15;42.65;;;18.90;99.90;;;;;;5054410;28;20028;-30
2022/08/24 00:51:41;;;;;;;46.53;42.17;;;18.80;99.90;;;;;;5053002;28;20060;-29
2022/08/24 00:54:12;;;;;;;49.42;44.53;;;18.80;99.90;;;;;;5064515;28;20116;-28
2022/08/24 00:56:42;;;;;;;48.05;43.08;;;18.70;99.90;;;;;;5052392;28;20048;-28
2022/08/24 00:59:17;;;;;;;48.47;43.78;;;18.70;99.90;;;;;;5066557;28;20047;-29
2022/08/24 01:01:43;;;;;;;48.10;43.42;;;18.70;99.90;;;;;;5062639;28;20078;-28
2022/08/24 01:04:20;;;;;;;46.38;41.22;;;18.70;99.90;;;;;;5067903;28;20111;-28
2022/08/24 01:06:48;;;;;;;45.10;40.78;;;18.70;99.90;;;;;;5069237;28;20036;-28
2022/08/24 01:09:15;;;;;;;49.47;44.67;;;18.60;99.90;;;;;;5069938;28;20036;-29
2022/08/24 01:11:41;;;;;;;49.15;43.95;;;18.60;99.90;;;;;;5069792;28;20516;-28
2022/08/24 01:14:07;;;;;;;46.13;41.85;;;18.50;99.90;;;;;;5063975;28;20131;-35
2022/08/24 01:19:39;;;;;;;49.15;44.38;;;18.50;99.90;;;;;;5069735;28;20043;-32
2022/08/24 01:22:31;;;;;;;48.55;43.55;;;18.50;99.90;;;;;;5070339;28;20119;-30
2022/08/24 01:24:58;;;;;;;53.00;47.90;;;18.50;99.90;;;;;;5066770;28;20041;-28
2022/08/24 01:27:24;;;;;;;48.75;44.00;;;18.50;99.90;;;;;;5069274;28;20501;-29
2022/08/24 01:29:50;;;;;;;51.28;46.38;;;18.50;99.90;;;;;;5069544;28;20436;-30
2022/08/24 01:32:19;;;;;;;44.17;39.75;;;18.50;99.90;;;;;;5052906;28;20067;-30
2022/08/24 01:34:45;;;;;;;49.78;44.95;;;18.40;99.90;;;;;;5051384;28;20028;-33
2022/08/24 01:37:11;;;;;;;45.35;40.92;;;18.40;99.90;;;;;;5058639;28;20039;-32
2022/08/24 01:39:41;;;;;;;46.95;42.28;;;18.30;99.90;;;;;;5069398;28;20040;-30
2022/08/24 01:42:08;;;;;;;44.30;40.13;;;18.30;99.90;;;;;;5069477;28;20481;-29
2022/08/24 01:44:35;;;;;;;45.70;41.30;;;18.30;99.90;;;;;;5065876;28;20041;-29
2022/08/24 01:47:04;;;;;;;43.20;38.95;;;18.30;99.90;;;;;;5068549;28;20054;-28
2022/08/24 01:49:35;;;;;;;48.60;43.70;;;18.30;99.90;;;;;;5049663;28;20106;-30
2022/08/24 01:52:01;;;;;;;47.25;42.58;;;18.30;99.90;;;;;;5071568;28;20044;-31
2022/08/24 01:54:28;;;;;;;44.90;40.38;;;18.20;99.90;;;;;;5059844;28;20072;-32
2022/08/24 01:56:54;;;;;;;48.40;43.58;;;18.10;99.90;;;;;;5052592;28;20075;-30
2022/08/24 01:59:20;;;;;;;47.40;42.72;;;18.10;99.90;;;;;;5050958;28;20068;-29
2022/08/24 02:01:53;;;;;;;50.65;45.55;;;18.00;99.90;;;;;;5067904;28;20043;-31
2022/08/24 02:04:19;;;;;;;46.97;42.55;;;18.00;99.90;;;;;;5050921;28;20036;-31
2022/08/24 02:06:45;;;;;;;47.10;42.60;;;18.00;99.90;;;;;;5067795;28;20512;-32
2022/08/24 02:09:11;;;;;;;44.60;40.10;;;18.00;99.90;;;;;;5051971;28;20094;-31
2022/08/24 02:11:39;;;;;;;46.80;42.22;;;18.00;99.90;;;;;;5069384;28;20039;-33
2022/08/24 02:14:05;;;;;;;44.38;39.90;;;18.00;99.90;;;;;;5053276;28;20119;-32
2022/08/24 02:16:31;;;;;;;47.42;42.72;;;18.00;99.90;;;;;;5052017;28;20036;-31
2022/08/24 02:18:57;;;;;;;47.58;42.80;;;17.90;99.90;;;;;;5068813;28;20024;-30
2022/08/24 02:21:23;;;;;;;48.20;43.40;;;17.90;99.90;;;;;;5051730;28;20037;-31
2022/08/24 02:23:49;;;;;;;50.33;45.28;;;17.90;99.90;;;;;;5071158;28;20454;-32
2022/08/24 02:26:16;;;;;;;47.22;42.60;;;17.80;99.90;;;;;;5045804;28;20083;-32
2022/08/24 02:28:42;;;;;;;52.42;46.95;;;17.80;99.90;;;;;;5065235;28;20087;-30
2022/08/24 02:31:11;;;;;;;47.70;42.97;;;17.70;99.90;;;;;;5067958;28;20075;-30
2022/08/24 02:33:37;;;;;;;49.25;44.33;;;17.70;99.90;;;;;;5068667;28;20039;-30
2022/08/24 02:36:04;;;;;;;49.42;44.38;;;17.60;99.90;;;;;;5068445;28;20072;-33
2022/08/24 02:38:30;;;;;;;47.92;43.13;;;17.60;99.90;;;;;;5050224;28;20045;-32
2022/08/24 02:40:56;;;;;;;48.15;43.45;;;17.60;99.90;;;;;;5050873;28;20452;-29
2022/08/24 02:43:23;;;;;;;46.05;41.53;;;17.60;99.90;;;;;;5068264;28;20040;-30
2022/08/24 02:45:50;;;;;;;50.60;45.60;;;17.60;99.90;;;;;;5063075;28;20033;-29
2022/08/24 02:48:17;;;;;;;45.60;40.92;;;17.60;99.90;;;;;;5053453;28;20120;-30
2022/08/24 02:50:45;;;;;;;51.63;46.13;;;17.60;99.90;;;;;;5068239;28;20044;-31
2022/08/24 02:53:14;;;;;;;51.03;45.90;;;17.50;99.90;;;;;;5051379;28;20029;-31
2022/08/24 02:55:41;;;;;;;56.10;50.22;;;17.50;99.90;;;;;;5053217;28;20075;-30
2022/08/24 02:58:09;;;;;;;51.60;46.25;;;17.50;99.90;;;;;;5069685;28;20048;-29
2022/08/24 03:00:37;;;;;;;51.67;46.47;;;17.40;99.90;;;;;;5035046;28;20123;-30
2022/08/24 03:03:04;;;;;;;51.28;45.97;;;17.40;99.90;;;;;;5068400;28;20601;-33
2022/08/24 03:05:30;;;;;;;47.03;42.55;;;17.40;99.90;;;;;;5067517;28;20060;-30
2022/08/24 03:07:56;;;;;;;52.53;47.15;;;17.40;99.90;;;;;;5050360;28;20076;-30
2022/08/24 03:10:22;;;;;;;53.42;48.00;;;17.40;99.90;;;;;;5035494;28;20045;-31
2022/08/24 03:12:49;;;;;;;50.72;45.42;;;17.30;99.90;;;;;;5068764;28;20028;-31
2022/08/24 03:15:16;;;;;;;47.78;43.08;;;17.30;99.90;;;;;;5066913;28;20032;-31
2022/08/24 03:17:43;;;;;;;51.53;46.10;;;17.30;99.90;;;;;;5070536;28;20408;-24
2022/08/24 03:20:12;;;;;;;47.70;42.90;;;17.30;99.90;;;;;;5051885;28;20041;-32
2022/08/24 03:22:38;;;;;;;48.58;43.20;;;17.30;99.90;;;;;;5068881;28;20029;-30
2022/08/24 03:25:05;;;;;;;45.05;40.63;;;17.30;99.90;;;;;;5067519;28;20501;-27
2022/08/24 03:27:31;;;;;;;49.88;44.70;;;17.30;99.90;;;;;;5066392;28;20040;-33
2022/08/24 03:29:57;;;;;;;51.22;45.97;;;17.30;99.90;;;;;;5051877;28;20040;-28
2022/08/24 03:32:23;;;;;;;47.97;42.17;;;17.20;99.90;;;;;;5050748;28;20401;-28
2022/08/24 03:34:49;;;;;;;48.83;43.72;;;17.20;99.90;;;;;;5050387;28;20086;-31
2022/08/24 03:37:15;;;;;;;45.42;40.72;;;17.20;99.90;;;;;;5051579;28;20037;-30
2022/08/24 03:39:41;;;;;;;46.88;42.03;;;17.20;99.90;;;;;;5066099;28;20039;-28
2022/08/24 03:42:07;;;;;;;46.45;41.72;;;17.20;99.90;;;;;;5070411;28;20127;-27
2022/08/24 03:44:33;;;;;;;50.65;45.33;;;17.20;99.90;;;;;;5068251;28;20040;-30
2022/08/24 03:47:00;;;;;;;51.92;46.53;;;17.10;99.90;;;;;;5050900;28;20064;-29
2022/08/24 03:49:25;;;;;;;48.05;42.83;;;17.10;99.90;;;;;;5059858;28;20033;-29
2022/08/24 03:51:52;;;;;;;45.38;40.95;;;17.10;99.90;;;;;;5071587;28;20464;-29
2022/08/24 03:54:18;;;;;;;43.97;39.45;;;17.10;99.90;;;;;;5038502;28;20055;-31
2022/08/24 03:56:44;;;;;;;45.63;41.05;;;17.00;99.90;;;;;;5038166;28;20059;-28
2022/08/24 03:59:10;;;;;;;48.08;43.15;;;17.00;99.90;;;;;;5070975;28;20494;-29
2022/08/24 04:01:37;;;;;;;49.45;44.22;;;17.00;99.90;;;;;;5071941;28;20079;-27
2022/08/24 04:04:04;;;;;;;49.15;44.08;;;17.00;99.90;;;;;;5057489;28;20044;-28
2022/08/24 04:06:30;;;;;;;46.97;42.25;;;17.00;99.90;;;;;;5069419;28;20494;-28
2022/08/24 04:08:56;;;;;;;46.63;41.95;;;17.00;99.90;;;;;;5055426;28;20033;-29
2022/08/24 04:11:25;;;;;;;46.33;41.45;;;16.90;99.90;;;;;;5069543;28;20043;-29
2022/08/24 04:13:55;;;;;;;45.20;40.50;;;16.90;99.90;;;;;;5048621;28;20393;-28
2022/08/24 04:16:21;;;;;;;48.13;43.20;;;16.90;99.90;;;;;;5055466;28;20105;-28
2022/08/24 04:18:48;;;;;;;47.80;42.92;;;16.90;99.90;;;;;;5055681;28;20044;-32
2022/08/24 04:21:19;;;;;;;47.15;42.05;;;16.90;99.90;;;;;;5059244;28;20036;-29
2022/08/24 04:23:46;;;;;;;50.17;45.03;;;16.90;99.90;;;;;;5070698;28;20040;-30
2022/08/24 04:26:13;;;;;;;51.67;46.03;;;16.90;99.90;;;;;;5064301;28;20080;-29
2022/08/24 04:28:39;;;;;;;43.33;38.92;;;16.90;99.90;;;;;;5071439;28;20082;-30
2022/08/24 04:31:06;;;;;;;45.33;40.58;;;16.90;99.90;;;;;;5054749;28;20501;-30
2022/08/24 04:33:31;;;;;;;45.30;40.70;;;16.90;99.90;;;;;;5070924;28;20116;-29
2022/08/24 04:35:58;;;;;;;46.50;41.90;;;16.90;99.90;;;;;;5036348;28;20131;-28
2022/08/24 04:38:23;;;;;;;46.17;41.50;;;16.90;99.90;;;;;;5069291;28;20044;-30
2022/08/24 04:40:49;;;;;;;41.92;37.67;;;16.80;99.90;;;;;;5042084;28;20498;-29
2022/08/24 04:43:17;;;;;;;44.55;39.90;;;16.80;99.90;;;;;;5066482;28;20052;-30
2022/08/24 04:45:46;;;;;;;44.97;40.35;;;16.80;99.90;;;;;;5050838;28;20071;-32
2022/08/24 04:48:14;;;;;;;45.95;41.20;;;16.80;99.90;;;;;;5052707;28;20044;-30
2022/08/24 04:50:42;;;;;;;44.70;40.17;;;16.80;99.90;;;;;;5047167;28;20048;-28
2022/08/24 04:53:09;;;;;;;44.60;40.10;;;16.80;99.90;;;;;;5052969;28;20126;-30
2022/08/24 04:55:48;;;;;;;42.75;38.35;;;16.80;99.90;;;;;;5070045;28;20037;-32
2022/08/24 04:58:16;;;;;;;43.80;39.33;;;16.80;99.90;;;;;;5069508;28;20516;-30
2022/08/24 05:00:42;;;;;;;43.92;39.50;;;16.70;99.90;;;;;;5069538;28;20047;-29
2022/08/24 05:03:10;;;;;;;42.10;37.75;;;16.70;99.90;;;;;;5060134;28;20043;-28
2022/08/24 05:05:44;;;;;;;42.58;38.38;;;16.80;99.90;;;;;;5055323;28;20033;-29
2022/08/24 05:08:11;;;;;;;44.03;39.63;;;16.80;99.90;;;;;;5072265;28;20137;-31
2022/08/24 05:10:39;;;;;;;47.22;42.42;;;16.80;99.90;;;;;;5055094;28;20068;-30
2022/08/24 05:13:06;;;;;;;46.63;41.85;;;16.80;99.90;;;;;;5053379;28;20036;-31
2022/08/24 05:15:33;;;;;;;43.85;39.47;;;16.80;99.90;;;;;;5049721;28;20063;-30
2022/08/24 05:17:59;;;;;;;42.05;37.85;;;16.80;99.90;;;;;;5070022;28;20048;-29
2022/08/24 05:20:25;;;;;;;43.67;39.08;;;16.80;99.90;;;;;;5062314;28;20128;-29
2022/08/24 05:22:53;;;;;;;45.47;40.58;;;16.90;99.90;;;;;;5054194;28;20036;-29
2022/08/24 05:25:19;;;;;;;41.20;37.03;;;16.90;99.90;;;;;;5051481;28;20087;-32
2022/08/24 05:27:46;;;;;;;42.72;38.58;;;16.90;99.90;;;;;;5034237;28;20048;-29
2022/08/24 05:30:12;;;;;;;46.80;41.35;;;17.00;99.90;;;;;;5046891;28;20044;-30
2022/08/24 05:32:38;;;;;;;45.10;40.65;;;17.00;99.90;;;;;;5054269;28;20123;-29
2022/08/24 05:35:05;;;;;;;43.42;39.10;;;17.00;99.90;;;;;;5068654;28;20036;-31
2022/08/24 05:37:38;;;;;;;46.10;41.53;;;17.10;99.90;;;;;;5052417;28;20561;-29
2022/08/24 05:40:10;;;;;;;47.33;42.47;;;17.10;99.90;;;;;;5053021;28;20397;-29
2022/08/24 05:42:37;;;;;;;43.83;39.28;;;17.10;99.90;;;;;;5066145;28;20504;-30
2022/08/24 05:45:05;;;;;;;45.45;41.08;;;17.20;99.90;;;;;;5052077;28;20067;-31
2022/08/24 05:47:33;;;;;;;54.72;48.88;;;17.20;99.90;;;;;;5065502;28;20043;-29
2022/08/24 05:49:59;;;;;;;51.33;45.10;;;17.30;99.90;;;;;;5051778;28;20553;-30
2022/08/24 05:52:25;;;;;;;47.30;42.28;;;17.30;99.90;;;;;;5056888;28;20041;-29
2022/08/24 05:54:56;;;;;;;46.50;41.83;;;17.40;99.90;;;;;;5048900;28;20405;-30
2022/08/24 05:57:24;;;;;;;47.05;42.25;;;17.40;99.90;;;;;;5051944;28;20044;-28
2022/08/24 05:59:50;;;;;;;45.95;41.35;;;17.50;99.90;;;;;;5066960;28;20033;-29
2022/08/24 06:02:18;;;;;;;44.85;40.35;;;17.60;99.90;;;;;;5052564;28;20411;-32
2022/08/24 06:04:44;;;;;;;42.40;38.00;;;17.60;99.90;;;;;;5048200;28;20037;-30
2022/08/24 06:07:11;;;;;;;44.75;40.15;;;17.60;99.90;;;;;;5049395;28;20443;-29
2022/08/24 06:09:39;;;;;;;42.80;38.38;;;17.70;99.90;;;;;;5041047;28;20123;-29
2022/08/24 06:12:06;;;;;;;45.03;40.35;;;17.70;99.90;;;;;;5058960;28;20083;-30
2022/08/24 06:14:33;;;;;;;41.17;37.05;;;17.80;99.90;;;;;;5061502;28;20033;-31
2022/08/24 06:17:00;;;;;;;39.25;35.25;;;17.80;99.90;;;;;;5050085;28;20064;-30
2022/08/24 06:19:26;;;;;;;38.38;34.65;;;17.90;99.90;;;;;;5052980;28;20040;-31
2022/08/24 06:21:53;;;;;;;39.45;35.53;;;18.00;99.90;;;;;;5040285;28;20076;-29
2022/08/24 06:27:19;;;;;;;40.08;36.08;;;18.00;99.90;;;;;;5033569;28;20101;-30
2022/08/24 06:27:21;;;;;;;44.80;40.33;;;18.10;99.90;;;;;;5063058;28;20041;-31
2022/08/24 06:29:53;;;;;;;46.88;42.05;;;18.20;99.90;;;;;;5046690;28;20029;-32
2022/08/24 06:32:19;;;;;;;42.97;38.78;;;18.30;99.90;;;;;;5048213;28;20509;-29
2022/08/24 06:34:45;;;;;;;45.17;40.58;;;18.40;99.90;;;;;;5042823;28;20037;-29
2022/08/24 06:37:12;;;;;;;51.83;46.42;;;18.40;99.90;;;;;;5057732;28;20043;-29
2022/08/24 06:39:38;;;;;;;51.55;46.30;;;18.50;99.90;;;;;;5051953;28;20071;-29
2022/08/24 06:42:04;;;;;;;52.58;47.05;;;18.60;99.90;;;;;;5049093;28;20104;-28
2022/08/24 06:44:30;;;;;;;56.30;50.22;;;18.70;99.90;;;;;;5047970;28;20549;-31
2022/08/24 06:46:56;;;;;;;66.45;59.17;;;18.80;99.90;;;;;;5068726;28;20041;-30
2022/08/24 06:49:23;;;;;;;56.38;50.35;;;18.80;99.90;;;;;;5050064;28;20039;-30
2022/08/24 06:51:49;;;;;;;64.22;57.03;;;18.90;99.90;;;;;;5051982;28;20036;-30
2022/08/24 06:54:16;;;;;;;59.92;53.65;;;19.00;99.90;;;;;;5043716;28;20398;-30
2022/08/24 06:56:42;;;;;;;76.28;68.05;;;19.10;99.90;;;;;;5051956;28;20055;-29
2022/08/24 06:59:08;;;;;;;73.18;65.25;;;19.20;99.90;;;;;;5042778;28;20040;-29
2022/08/24 07:01:33;;;;;;;72.45;63.55;;;19.40;99.90;;;;;;5045239;28;20030;-31
2022/08/24 07:03:59;;;;;;;72.40;64.30;;;19.60;99.90;;;;;;5040475;28;20326;-32
2022/08/24 07:06:25;;;;;;;68.20;60.75;;;19.70;99.90;;;;;;5043577;28;20405;-29
2022/08/24 07:08:52;;;;;;;69.57;60.83;;;19.80;99.90;;;;;;5047364;28;20040;-32
2022/08/24 07:11:18;;;;;;;72.03;64.28;;;20.00;99.90;;;;;;5049941;28;20042;-29
2022/08/24 07:13:46;;;;;;;65.35;58.40;;;20.10;99.90;;;;;;5049249;28;20037;-29
2022/08/24 07:16:19;;;;;;;62.50;55.72;;;20.20;99.90;;;;;;5047856;28;20115;-32
2022/08/24 07:18:45;;;;;;;64.97;58.15;;;20.30;99.90;;;;;;5044522;28;20052;-30
2022/08/24 07:21:11;;;;;;;64.60;57.78;;;20.40;99.90;;;;;;5066436;28;20115;-30
2022/08/24 07:23:37;;;;;;;67.47;60.28;;;20.50;99.90;;;;;;5051442;28;20111;-30
2022/08/24 07:26:13;;;;;;;59.33;53.38;;;20.60;99.90;;;;;;5051804;28;20047;-29
2022/08/24 07:28:39;;;;;;;60.63;54.30;;;20.70;99.90;;;;;;5061112;28;20100;-30
2022/08/24 07:31:06;;;;;;;60.22;53.90;;;20.80;99.90;;;;;;5051670;28;20033;-28
2022/08/24 07:33:32;;;;;;;56.42;50.42;;;21.00;99.90;;;;;;5069116;28;20486;-34
2022/08/24 07:35:58;;;;;;;50.58;45.55;;;21.20;99.90;;;;;;5051746;28;20323;-29
2022/08/24 07:38:25;;;;;;;51.78;46.22;;;21.30;99.90;;;;;;5051794;28;20037;-32
2022/08/24 07:40:52;;;;;;;50.15;45.13;;;21.50;99.90;;;;;;5051746;28;20071;-29
2022/08/24 07:43:19;;;;;;;45.88;41.22;;;21.70;99.90;;;;;;5068612;28;20486;-29
2022/08/24 07:45:47;;;;;;;43.63;39.53;;;21.90;99.90;;;;;;5048566;28;20095;-31
2022/08/24 07:48:12;;;;;;;39.40;35.65;;;22.20;99.90;;;;;;5051245;28;20283;-28
2022/08/24 07:50:38;;;;;;;38.85;35.25;;;22.40;99.90;;;;;;5048499;28;20036;-31
2022/08/24 07:53:04;;;;;;;38.03;34.28;;;22.70;99.90;;;;;;5051952;28;20033;-29
2022/08/24 07:55:30;;;;;;;33.63;30.55;;;22.90;99.90;;;;;;5051380;28;20036;-31
2022/08/24 07:57:56;;;;;;;31.45;28.42;;;23.20;99.90;;;;;;5050811;28;20094;-30
2022/08/24 08:00:22;;;;;;;31.02;27.85;;;23.50;99.90;;;;;;5049863;28;20455;-29
2022/08/24 08:02:48;;;;;;;30.88;28.08;;;23.70;99.90;;;;;;5045640;28;20051;-29
2022/08/24 08:05:17;;;;;;;28.42;25.67;;;23.90;99.90;;;;;;5041170;28;20039;-30
2022/08/24 08:07:42;;;;;;;28.13;25.48;;;24.10;99.90;;;;;;5051310;28;20036;-29
2022/08/24 08:10:10;;;;;;;32.03;29.10;;;24.40;99.90;;;;;;5051312;28;20119;-29
2022/08/24 08:12:36;;;;;;;30.60;27.60;;;24.60;99.90;;;;;;5072994;28;20029;-30
2022/08/24 08:15:02;;;;;;;31.15;28.23;;;24.80;99.90;;;;;;5051352;28;20482;-30
2022/08/24 08:17:28;;;;;;;32.00;27.80;;;25.00;99.90;;;;;;5063418;28;20040;-30
2022/08/24 08:19:54;;;;;;;29.73;26.80;;;25.30;99.90;;;;;;5022990;28;20040;-31
2022/08/24 08:25:06;;;;;;;25.30;22.65;;;25.60;99.90;;;;;;5063325;28;20048;-29
2022/08/24 08:27:34;;;;;;;24.30;21.95;;;25.80;99.90;;;;;;5049111;28;20414;-30
2022/08/24 08:30:00;;;;;;;18.70;16.70;;;26.10;99.90;;;;;;5046164;28;20497;-29
2022/08/24 08:32:26;;;;;;;16.85;15.15;;;26.30;99.90;;;;;;5052766;28;20401;-30
2022/08/24 08:34:52;;;;;;;22.15;19.90;;;26.40;99.90;;;;;;5071933;28;20036;-30
2022/08/24 08:37:19;;;;;;;23.63;21.45;;;26.50;99.90;;;;;;5069605;28;20410;-32
2022/08/24 08:39:44;;;;;;;22.27;19.98;;;26.70;99.90;;;;;;5070781;28;20121;-29
2022/08/24 08:42:43;;;;;;;20.67;18.90;;;26.90;99.90;;;;;;5033485;28;20565;-29
2022/08/24 08:45:28;;;;;;;20.73;18.70;;;27.10;99.90;;;;;;5051682;28;20032;-29
2022/08/24 08:48:31;;;;;;;20.55;18.70;;;27.30;99.90;;;;;;5078436;28;20450;-30
2022/08/24 08:51:06;;;;;;;;;;;27.40;99.90;;;;;;5055117;28;20040;-30
2022/08/24 08:53:59;;;;;;;17.67;15.90;;;27.60;99.90;;;;;;5066914;28;19964;-32
2022/08/24 08:56:59;;;;;;;16.55;15.05;;;28.00;99.90;;;;;;5054509;28;20119;-30
2022/08/24 08:59:43;;;;;;;13.73;12.48;;;28.20;99.90;;;;;;5064618;28;20047;-30
2022/08/24 09:02:45;;;;;;;13.20;10.95;;;28.40;99.90;;;;;;5066732;28;20040;-32
2022/08/24 09:05:29;;;;;;;10.95;9.85;;;28.70;98.20;;;;;;5051425;28;20553;-34
2022/08/24 09:08:11;;;;;;;12.05;10.88;;;28.90;98.10;;;;;;5050823;28;20041;-30
2022/08/24 09:11:13;;;;;;;10.60;9.55;;;29.10;95.20;;;;;;5050197;28;20037;-31
2022/08/24 09:13:58;;;;;;;8.63;7.72;;;29.10;96.30;;;;;;5051131;28;20536;-31
2022/08/24 09:16:23;;;;;;;8.32;7.50;;;29.40;99.90;;;;;;5054170;28;20044;-30
2022/08/24 09:19:22;;;;;;;9.30;8.38;;;29.70;99.90;;;;;;5052708;28;20121;-30
2022/08/24 09:21:54;;;;;;;9.88;8.88;;;30.10;97.60;;;;;;5049142;28;20040;-30
2022/08/24 09:24:22;;;;;;;14.33;11.20;;;30.30;95.00;;;;;;5053818;28;20067;-29
2022/08/24 09:27:22;;;;;;;10.43;9.43;;;30.40;93.60;;;;;;5048868;28;20438;-31
2022/08/24 09:30:10;;;;;;;11.13;9.23;;;30.70;84.50;;;;;;5064556;28;20045;-31
2022/08/24 09:33:19;;;;;;;9.02;8.15;;;30.70;85.00;;;;;;5050485;28;20033;-30
2022/08/24 09:35:50;;;;;;;7.85;7.05;;;31.00;83.20;;;;;;5044860;28;20040;-30
2022/08/24 09:38:44;;;;;;;9.43;8.53;;;31.30;90.70;;;;;;5070332;28;20032;-30
2022/08/24 09:41:39;;;;;;;10.65;9.52;;;31.50;80.10;;;;;;5051926;28;20043;-30
2022/08/24 09:44:14;;;;;;;10.90;9.80;;;31.50;75.40;;;;;;5051517;28;20044;-31
2022/08/24 09:47:19;;;;;;;12.23;11.05;;;31.60;76.60;;;;;;5077404;28;20040;-30
2022/08/24 09:50:12;;;;;;;10.45;9.50;;;31.60;67.50;;;;;;5050169;28;20032;-31
2022/08/24 09:53:03;;;;;;;9.30;8.40;;;31.50;65.60;;;;;;5051075;28;20036;-30
2022/08/24 09:55:38;;;;;;;7.90;7.10;;;31.70;68.20;;;;;;5051211;28;20040;-30
2022/08/24 09:58:22;;;;;;;6.13;5.35;;;31.90;71.40;;;;;;5044886;28;20039;-31
2022/08/24 10:01:21;;;;;;;7.68;6.40;;;32.10;68.60;;;;;;5058323;28;20032;-32
2022/08/24 10:04:29;;;;;;;10.02;7.30;;;32.40;58.00;;;;;;5039487;28;20044;-30
2022/08/24 10:07:14;;;;;;;6.82;5.63;;;32.40;60.90;;;;;;5063396;28;20036;-30
2022/08/24 10:09:58;;;;;;;6.95;5.35;;;32.70;58.20;;;;;;5045484;28;20111;-30
2022/08/24 10:12:39;;;;;;;7.70;6.80;;;32.90;61.40;;;;;;5072317;28;20047;-30
2022/08/24 10:15:31;;;;;;;5.70;5.05;;;32.80;57.90;;;;;;5053424;28;20112;-30
2022/08/24 10:18:21;;;;;;;7.82;6.35;;;32.90;55.50;;;;;;5057604;28;20071;-31
2022/08/24 10:21:07;;;;;;;6.22;5.70;;;33.10;58.10;;;;;;5063158;28;20238;-30
2022/08/24 10:23:45;;;;;;;5.95;5.45;;;33.30;55.10;;;;;;5053171;28;20079;-30
2022/08/24 10:26:24;;;;;;;6.40;5.43;;;33.30;56.00;;;;;;5052728;28;20075;-32
2022/08/24 10:29:27;;;;;;;5.57;4.97;;;33.50;54.80;;;;;;5053384;28;20036;-30
2022/08/24 10:32:41;;;;;;;5.25;4.75;;;33.60;54.30;;;;;;5037816;28;20047;-30
2022/08/24 10:35:15;;;;;;;5.18;4.68;;;33.90;54.90;;;;;;5043360;28;20120;-30
2022/08/24 10:41:29;;;;;;;5.15;4.70;;;33.90;53.10;;;;;;5061603;28;20072;-30
2022/08/24 10:44:27;;;;;;;4.82;4.43;;;34.00;53.50;;;;;;5066144;28;20048;-30
2022/08/24 10:47:22;;;;;;;4.75;3.20;;;33.90;53.20;;;;;;5050383;28;20044;-31
2022/08/24 10:50:07;;;;;;;6.07;4.32;;;34.30;54.10;;;;;;5052487;28;20060;-30
2022/08/24 10:53:01;;;;;;;3.70;2.35;;;34.60;52.80;;;;;;5044582;28;20047;-30
2022/08/24 10:55:30;;;;;;;4.47;3.72;;;34.60;49.50;;;;;;5052066;28;20405;-31
2022/08/24 10:58:02;;;;;;;6.88;4.15;;;34.40;50.20;;;;;;5069496;28;20517;-30
2022/08/24 11:00:31;;;;;;;4.28;2.85;;;34.30;49.70;;;;;;5068884;28;20047;-31
2022/08/24 11:03:25;;;;;;;4.75;3.13;;;34.40;50.70;;;;;;5069700;28;20371;-32
2022/08/24 11:05:56;;;;;;;2.10;1.80;;;34.60;48.90;;;;;;5041296;28;20041;-32
2022/08/24 11:08:28;;;;;;;1.73;1.40;;;34.80;50.00;;;;;;5068327;28;20170;-30
2022/08/24 11:11:09;;;;;;;3.15;2.13;;;34.90;47.80;;;;;;5051965;28;20051;-32
2022/08/24 11:13:48;;;;;;;4.38;2.25;;;35.20;48.20;;;;;;5066663;28;20037;-31
2022/08/24 11:16:28;;;;;;;1.85;1.45;;;35.40;47.60;;;;;;5050831;28;20033;-30
2022/08/24 11:18:57;;;;;;;3.35;1.70;;;35.40;46.50;;;;;;5049023;28;20086;-30
2022/08/24 11:21:51;;;;;;;1.65;1.50;;;35.30;45.90;;;;;;5060623;28;20123;-30
2022/08/24 11:24:17;;;;;;;2.75;1.70;;;35.30;46.20;;;;;;5065816;28;20039;-30
2022/08/24 11:26:52;;;;;;;2.55;1.73;;;35.40;46.90;;;;;;5068026;28;20402;-30
2022/08/24 11:29:18;;;;;;;1.73;1.40;;;35.30;46.00;;;;;;5049972;28;20111;-31
2022/08/24 11:31:49;;;;;;;2.35;1.65;;;35.50;47.50;;;;;;5050067;28;20116;-32
2022/08/24 11:34:36;;;;;;;2.40;2.05;;;35.30;45.80;;;;;;5049939;28;20049;-31
2022/08/24 11:37:03;;;;;;;3.20;1.63;;;35.50;45.70;;;;;;5055355;28;20094;-32
2022/08/24 11:39:34;;;;;;;1.60;1.40;;;35.30;46.00;;;;;;5050210;28;20502;-32
2022/08/24 11:42:31;;;;;;;4.13;1.55;;;35.60;46.80;;;;;;5057060;28;20063;-32
2022/08/24 11:45:36;;;;;;;1.75;1.60;;;35.70;45.70;;;;;;5050164;28;20036;-31
2022/08/24 11:48:05;;;;;;;2.40;1.63;;;35.60;45.70;;;;;;4998736;28;20055;-33
2022/08/24 11:50:39;;;;;;;2.58;1.50;;;35.70;45.90;;;;;;5065565;28;20525;-32
2022/08/24 11:53:08;;;;;;;2.03;1.30;;;36.10;45.80;;;;;;5049420;28;20516;-33
2022/08/24 11:55:59;;;;;;;2.30;1.48;;;36.30;44.60;;;;;;5052537;28;20040;-32
2022/08/24 11:58:52;;;;;;;1.45;1.13;;;36.40;45.50;;;;;;5066686;28;20119;-30
2022/08/24 12:01:50;;;;;;;1.27;1.05;;;36.50;44.00;;;;;;5066578;28;20410;-34
2022/08/24 12:04:52;;;;;;;1.17;1.08;;;36.90;44.20;;;;;;5069140;28;20426;-32
2022/08/24 12:07:42;;;;;;;2.28;1.30;;;37.30;43.40;;;;;;5035788;28;20105;-34
2022/08/24 12:10:20;;;;;;;1.42;1.10;;;37.80;43.30;;;;;;5042745;28;20443;-32
2022/08/24 12:13:02;;;;;;;1.40;1.23;;;38.10;41.90;;;;;;5070684;28;20036;-33
2022/08/24 12:15:55;;;;;;;15.00;13.57;;;38.40;41.00;;;;;;5059340;28;20040;-33
2022/08/24 12:18:50;;;;;;;4.68;3.72;;;38.50;40.50;;;;;;5052164;28;20044;-32
2022/08/24 12:21:18;;;;;;;1.45;1.13;;;38.30;40.80;;;;;;5052949;28;20397;-32
2022/08/24 12:23:48;;;;;;;2.13;1.40;;;38.30;40.10;;;;;;5069963;28;20094;-32
2022/08/24 12:26:24;;;;;;;3.13;1.10;;;37.90;39.50;;;;;;5067101;28;20044;-28
2022/08/24 12:28:54;;;;;;;1.95;1.20;;;38.00;41.20;;;;;;5040384;28;20067;-28
2022/08/24 12:31:41;;;;;;;1.45;1.20;;;38.50;41.30;;;;;;5056744;28;20032;-33
2022/08/24 12:34:19;;;;;;;3.55;1.52;;;38.50;39.40;;;;;;5070081;28;20048;-31
2022/08/24 12:36:56;;;;;;;4.88;1.60;;;38.60;39.40;;;;;;5056827;28;20154;-28
2022/08/24 12:39:27;;;;;;;6.88;2.15;;;38.80;39.70;;;;;;5056857;28;20036;-28
2022/08/24 12:41:56;;;;;;;1.55;1.35;;;39.00;39.60;;;;;;5056848;28;20071;-28
2022/08/24 12:44:30;;;;;;;1.52;1.17;;;38.80;39.40;;;;;;5074723;28;20048;-28
2022/08/24 12:46:56;;;;;;;4.90;1.80;;;38.70;39.00;;;;;;5040047;28;20052;-28
2022/08/24 12:49:32;;;;;;;4.28;1.63;;;38.80;38.60;;;;;;5056351;28;20032;-30
2022/08/24 12:52:03;;;;;;;2.30;1.10;;;38.60;38.00;;;;;;5056096;28;20094;-27
2022/08/24 12:54:54;;;;;;;1.75;1.40;;;38.80;38.30;;;;;;5073055;28;20115;-28
2022/08/24 12:57:23;;;;;;;1.33;1.23;;;38.60;39.50;;;;;;5056692;28;20480;-29
2022/08/24 12:59:55;;;;;;;2.03;1.75;;;38.50;38.60;;;;;;5072951;28;20044;-27
2022/08/24 13:02:20;;;;;;;1.30;1.20;;;38.30;38.50;;;;;;5055763;28;20044;-29
2022/08/24 13:04:49;;;;;;;1.65;1.30;;;38.20;38.60;;;;;;5073334;28;20051;-31
2022/08/24 13:07:18;;;;;;;1.83;1.40;;;38.40;38.70;;;;;;5068386;28;20040;-31
2022/08/24 13:10:06;;;;;;;1.30;1.15;;;38.70;37.90;;;;;;5051907;28;20068;-31